sensor_id;sensor_type;location;lat;lon;timestamp;P1;durP1;ratioP1;P2;durP2;ratioP2
25870;SDS011;13689;48.590;7.752;2023-04-01T00:01:24;0.80;;;0.30;;
25870;SDS011;13689;48.590;7.752;2023-04-01T00:03:51;4.47;;;0.43;;
25870;SDS011;13689;48.590;7.752;2023-04-01T00:06:17;2.63;;;0.50;;
25870;SDS011;13689;48.590;7.752;2023-04-01T00:08:43;3.38;;;0.47;;
25870;SDS011;13689;48.590;7.752;2023-04-01T00:11:09;3.08;;;0.55;;
25870;SDS011;13689;48.590;7.752;2023-04-01T00:13:35;0.10;;;0.10;;
25870;SDS011;13689;48.590;7.752;2023-04-01T00:16:01;4.85;;;0.50;;
25870;SDS011;13689;48.590;7.752;2023-04-01T00:18:29;1.85;;;0.50;;
25870;SDS011;13689;48.590;7.752;2023-04-01T00:20:54;2.85;;;0.60;;
25870;SDS011;13689;48.590;7.752;2023-04-01T00:23:20;2.25;;;0.30;;
25870;SDS011;13689;48.590;7.752;2023-04-01T00:25:46;5.03;;;0.45;;
25870;SDS011;13689;48.590;7.752;2023-04-01T00:28:13;2.85;;;0.38;;
25870;SDS011;13689;48.590;7.752;2023-04-01T00:30:40;0.40;;;0.22;;
25870;SDS011;13689;48.590;7.752;2023-04-01T00:33:05;2.15;;;0.45;;
25870;SDS011;13689;48.590;7.752;2023-04-01T00:35:31;3.83;;;0.43;;
25870;SDS011;13689;48.590;7.752;2023-04-01T00:37:57;0.15;;;0.08;;
25870;SDS011;13689;48.590;7.752;2023-04-01T00:45:37;0.20;;;0.20;;
25870;SDS011;13689;48.590;7.752;2023-04-01T00:48:08;1.42;;;0.50;;
25870;SDS011;13689;48.590;7.752;2023-04-01T00:50:38;3.80;;;0.30;;
25870;SDS011;13689;48.590;7.752;2023-04-01T00:53:07;0.98;;;0.30;;
25870;SDS011;13689;48.590;7.752;2023-04-01T00:55:34;1.20;;;0.30;;
25870;SDS011;13689;48.590;7.752;2023-04-01T00:58:03;0.38;;;0.10;;
25870;SDS011;13689;48.590;7.752;2023-04-01T01:00:32;0.20;;;0.10;;
25870;SDS011;13689;48.590;7.752;2023-04-01T01:03:00;0.10;;;0.10;;
25870;SDS011;13689;48.590;7.752;2023-04-01T01:05:34;1.67;;;0.30;;
25870;SDS011;13689;48.590;7.752;2023-04-01T01:08:17;0.20;;;0.08;;
25870;SDS011;13689;48.590;7.752;2023-04-01T01:10:58;0.68;;;0.10;;
25870;SDS011;13689;48.590;7.752;2023-04-01T01:13:26;3.22;;;0.20;;
25870;SDS011;13689;48.590;7.752;2023-04-01T01:27:14;0.50;;;0.17;;
25870;SDS011;13689;48.590;7.752;2023-04-01T01:29:58;0.10;;;0.08;;
25870;SDS011;13689;48.590;7.752;2023-04-01T01:35:35;1.02;;;0.20;;
25870;SDS011;13689;48.590;7.752;2023-04-01T01:38:06;0.20;;;0.10;;
25870;SDS011;13689;48.590;7.752;2023-04-01T01:40:42;1.85;;;0.10;;
25870;SDS011;13689;48.590;7.752;2023-04-01T01:43:11;1.52;;;0.20;;
25870;SDS011;13689;48.590;7.752;2023-04-01T01:45:43;1.17;;;0.15;;
25870;SDS011;13689;48.590;7.752;2023-04-01T01:48:12;1.00;;;0.15;;
25870;SDS011;13689;48.590;7.752;2023-04-01T01:50:38;0.35;;;0.10;;
25870;SDS011;13689;48.590;7.752;2023-04-01T01:53:07;0.10;;;0.10;;
25870;SDS011;13689;48.590;7.752;2023-04-01T01:55:36;0.20;;;0.10;;
25870;SDS011;13689;48.590;7.752;2023-04-01T02:00:48;1.10;;;0.05;;
25870;SDS011;13689;48.590;7.752;2023-04-01T02:03:20;2.67;;;0.30;;
25870;SDS011;13689;48.590;7.752;2023-04-01T02:05:48;0.52;;;0.10;;
25870;SDS011;13689;48.590;7.752;2023-04-01T02:08:17;0.00;;;0.00;;
25870;SDS011;13689;48.590;7.752;2023-04-01T02:10:54;1.10;;;0.20;;
25870;SDS011;13689;48.590;7.752;2023-04-01T02:13:25;1.75;;;0.10;;
25870;SDS011;13689;48.590;7.752;2023-04-01T02:15:58;0.10;;;0.10;;
25870;SDS011;13689;48.590;7.752;2023-04-01T02:18:27;0.00;;;0.00;;
25870;SDS011;13689;48.590;7.752;2023-04-01T02:20:55;0.60;;;0.20;;
25870;SDS011;13689;48.590;7.752;2023-04-01T02:23:24;0.20;;;0.00;;
25870;SDS011;13689;48.590;7.752;2023-04-01T02:25:50;1.35;;;0.00;;
25870;SDS011;13689;48.590;7.752;2023-04-01T02:28:17;0.38;;;0.10;;
25870;SDS011;13689;48.590;7.752;2023-04-01T02:30:44;1.17;;;0.25;;
25870;SDS011;13689;48.590;7.752;2023-04-01T02:35:38;0.32;;;0.15;;
25870;SDS011;13689;48.590;7.752;2023-04-01T02:38:04;0.45;;;0.20;;
25870;SDS011;13689;48.590;7.752;2023-04-01T02:40:40;2.40;;;0.30;;
25870;SDS011;13689;48.590;7.752;2023-04-01T02:43:11;1.17;;;0.32;;
25870;SDS011;13689;48.590;7.752;2023-04-01T02:45:37;1.98;;;0.30;;
25870;SDS011;13689;48.590;7.752;2023-04-01T02:48:04;0.80;;;0.17;;
25870;SDS011;13689;48.590;7.752;2023-04-01T02:50:30;0.82;;;0.30;;
25870;SDS011;13689;48.590;7.752;2023-04-01T02:52:55;1.85;;;0.22;;
25870;SDS011;13689;48.590;7.752;2023-04-01T02:55:21;2.42;;;0.10;;
25870;SDS011;13689;48.590;7.752;2023-04-01T02:57:47;0.20;;;0.10;;
25870;SDS011;13689;48.590;7.752;2023-04-01T03:00:12;0.35;;;0.20;;
25870;SDS011;13689;48.590;7.752;2023-04-01T03:02:39;4.43;;;0.52;;
25870;SDS011;13689;48.590;7.752;2023-04-01T03:05:05;0.40;;;0.30;;
25870;SDS011;13689;48.590;7.752;2023-04-01T03:07:32;0.47;;;0.30;;
25870;SDS011;13689;48.590;7.752;2023-04-01T03:09:57;1.85;;;0.20;;
25870;SDS011;13689;48.590;7.752;2023-04-01T03:12:23;1.30;;;0.47;;
25870;SDS011;13689;48.590;7.752;2023-04-01T03:14:49;0.95;;;0.60;;
25870;SDS011;13689;48.590;7.752;2023-04-01T03:17:15;3.55;;;0.20;;
25870;SDS011;13689;48.590;7.752;2023-04-01T03:19:40;3.20;;;0.40;;
25870;SDS011;13689;48.590;7.752;2023-04-01T03:22:06;2.25;;;0.40;;
25870;SDS011;13689;48.590;7.752;2023-04-01T03:24:32;1.52;;;0.60;;
25870;SDS011;13689;48.590;7.752;2023-04-01T03:26:58;4.38;;;0.68;;
25870;SDS011;13689;48.590;7.752;2023-04-01T03:29:24;1.33;;;0.40;;
25870;SDS011;13689;48.590;7.752;2023-04-01T03:31:49;2.60;;;0.40;;
25870;SDS011;13689;48.590;7.752;2023-04-01T03:34:15;2.42;;;0.47;;
25870;SDS011;13689;48.590;7.752;2023-04-01T03:36:40;2.40;;;0.50;;
25870;SDS011;13689;48.590;7.752;2023-04-01T03:39:06;2.13;;;0.38;;
25870;SDS011;13689;48.590;7.752;2023-04-01T03:41:32;4.18;;;0.50;;
25870;SDS011;13689;48.590;7.752;2023-04-01T03:44:00;4.05;;;0.30;;
25870;SDS011;13689;48.590;7.752;2023-04-01T03:46:26;4.97;;;0.60;;
25870;SDS011;13689;48.590;7.752;2023-04-01T03:48:51;3.58;;;0.47;;
25870;SDS011;13689;48.590;7.752;2023-04-01T03:51:17;6.70;;;0.63;;
25870;SDS011;13689;48.590;7.752;2023-04-01T03:53:43;7.53;;;0.68;;
25870;SDS011;13689;48.590;7.752;2023-04-01T03:56:08;3.30;;;0.50;;
25870;SDS011;13689;48.590;7.752;2023-04-01T03:58:35;4.05;;;0.45;;
25870;SDS011;13689;48.590;7.752;2023-04-01T04:01:00;2.83;;;0.65;;
25870;SDS011;13689;48.590;7.752;2023-04-01T04:03:26;4.32;;;0.43;;
25870;SDS011;13689;48.590;7.752;2023-04-01T04:05:51;5.13;;;1.13;;
25870;SDS011;13689;48.590;7.752;2023-04-01T04:08:17;5.43;;;0.60;;
25870;SDS011;13689;48.590;7.752;2023-04-01T04:10:43;2.90;;;0.50;;
25870;SDS011;13689;48.590;7.752;2023-04-01T04:13:09;5.00;;;0.88;;
25870;SDS011;13689;48.590;7.752;2023-04-01T04:15:35;6.93;;;0.60;;
25870;SDS011;13689;48.590;7.752;2023-04-01T04:18:00;2.03;;;0.50;;
25870;SDS011;13689;48.590;7.752;2023-04-01T04:20:26;1.63;;;0.30;;
25870;SDS011;13689;48.590;7.752;2023-04-01T04:22:52;2.35;;;0.43;;
25870;SDS011;13689;48.590;7.752;2023-04-01T04:25:17;2.67;;;0.50;;
25870;SDS011;13689;48.590;7.752;2023-04-01T04:27:43;1.33;;;0.35;;
25870;SDS011;13689;48.590;7.752;2023-04-01T04:30:09;0.57;;;0.20;;
25870;SDS011;13689;48.590;7.752;2023-04-01T04:32:34;1.08;;;0.32;;
25870;SDS011;13689;48.590;7.752;2023-04-01T04:35:00;0.93;;;0.20;;
25870;SDS011;13689;48.590;7.752;2023-04-01T04:37:26;2.78;;;0.40;;
25870;SDS011;13689;48.590;7.752;2023-04-01T04:39:52;0.25;;;0.15;;
25870;SDS011;13689;48.590;7.752;2023-04-01T04:42:17;1.95;;;0.30;;
25870;SDS011;13689;48.590;7.752;2023-04-01T04:44:43;0.82;;;0.15;;
25870;SDS011;13689;48.590;7.752;2023-04-01T04:47:08;0.43;;;0.20;;
25870;SDS011;13689;48.590;7.752;2023-04-01T04:49:34;0.52;;;0.20;;
25870;SDS011;13689;48.590;7.752;2023-04-01T04:52:00;0.52;;;0.10;;
25870;SDS011;13689;48.590;7.752;2023-04-01T04:54:25;3.83;;;0.15;;
25870;SDS011;13689;48.590;7.752;2023-04-01T04:56:51;0.10;;;0.10;;
25870;SDS011;13689;48.590;7.752;2023-04-01T04:59:18;2.67;;;0.32;;
25870;SDS011;13689;48.590;7.752;2023-04-01T05:01:43;1.83;;;0.30;;
25870;SDS011;13689;48.590;7.752;2023-04-01T05:04:09;5.05;;;0.40;;
25870;SDS011;13689;48.590;7.752;2023-04-01T05:06:34;0.68;;;0.43;;
25870;SDS011;13689;48.590;7.752;2023-04-01T05:09:00;1.67;;;0.13;;
25870;SDS011;13689;48.590;7.752;2023-04-01T05:11:26;0.70;;;0.30;;
25870;SDS011;13689;48.590;7.752;2023-04-01T05:13:52;2.35;;;0.30;;
25870;SDS011;13689;48.590;7.752;2023-04-01T05:16:18;1.05;;;0.22;;
25870;SDS011;13689;48.590;7.752;2023-04-01T05:18:47;3.97;;;0.30;;
25870;SDS011;13689;48.590;7.752;2023-04-01T05:21:13;0.30;;;0.20;;
25870;SDS011;13689;48.590;7.752;2023-04-01T05:23:39;2.47;;;0.20;;
25870;SDS011;13689;48.590;7.752;2023-04-01T05:26:06;4.80;;;0.50;;
25870;SDS011;13689;48.590;7.752;2023-04-01T05:30:59;3.83;;;0.28;;
25870;SDS011;13689;48.590;7.752;2023-04-01T05:33:26;1.85;;;0.30;;
25870;SDS011;13689;48.590;7.752;2023-04-01T05:35:52;2.30;;;0.20;;
25870;SDS011;13689;48.590;7.752;2023-04-01T05:38:19;1.40;;;0.20;;
25870;SDS011;13689;48.590;7.752;2023-04-01T05:40:44;1.58;;;0.28;;
25870;SDS011;13689;48.590;7.752;2023-04-01T05:43:10;2.78;;;0.30;;
25870;SDS011;13689;48.590;7.752;2023-04-01T05:45:36;0.68;;;0.30;;
25870;SDS011;13689;48.590;7.752;2023-04-01T05:48:02;0.85;;;0.20;;
25870;SDS011;13689;48.590;7.752;2023-04-01T05:50:28;1.67;;;0.32;;
25870;SDS011;13689;48.590;7.752;2023-04-01T05:52:54;0.20;;;0.10;;
25870;SDS011;13689;48.590;7.752;2023-04-01T05:55:20;0.10;;;0.10;;
25870;SDS011;13689;48.590;7.752;2023-04-01T05:57:45;0.60;;;0.20;;
25870;SDS011;13689;48.590;7.752;2023-04-01T06:00:13;1.63;;;0.40;;
25870;SDS011;13689;48.590;7.752;2023-04-01T06:02:40;0.10;;;0.10;;
25870;SDS011;13689;48.590;7.752;2023-04-01T06:07:38;0.10;;;0.10;;
25870;SDS011;13689;48.590;7.752;2023-04-01T06:10:09;2.60;;;0.40;;
25870;SDS011;13689;48.590;7.752;2023-04-01T06:13:02;1.55;;;0.20;;
25870;SDS011;13689;48.590;7.752;2023-04-01T06:20:48;0.35;;;0.10;;
25870;SDS011;13689;48.590;7.752;2023-04-01T06:23:33;0.60;;;0.30;;
25870;SDS011;13689;48.590;7.752;2023-04-01T06:31:46;0.75;;;0.20;;
25870;SDS011;13689;48.590;7.752;2023-04-01T06:37:24;2.17;;;0.40;;
25870;SDS011;13689;48.590;7.752;2023-04-01T06:51:15;3.83;;;0.25;;
25870;SDS011;13689;48.590;7.752;2023-04-01T06:54:09;3.30;;;0.73;;
25870;SDS011;13689;48.590;7.752;2023-04-01T06:56:39;0.52;;;0.50;;
25870;SDS011;13689;48.590;7.752;2023-04-01T06:59:15;4.03;;;0.75;;
25870;SDS011;13689;48.590;7.752;2023-04-01T07:01:51;2.67;;;0.65;;
25870;SDS011;13689;48.590;7.752;2023-04-01T07:04:28;1.25;;;0.30;;
25870;SDS011;13689;48.590;7.752;2023-04-01T07:09:31;0.93;;;0.00;;
25870;SDS011;13689;48.590;7.752;2023-04-01T07:12:02;1.70;;;0.50;;
25870;SDS011;13689;48.590;7.752;2023-04-01T07:14:37;2.15;;;0.50;;
25870;SDS011;13689;48.590;7.752;2023-04-01T07:20:15;0.75;;;0.20;;
25870;SDS011;13689;48.590;7.752;2023-04-01T07:22:49;3.33;;;0.32;;
25870;SDS011;13689;48.590;7.752;2023-04-01T07:25:21;1.38;;;0.50;;
25870;SDS011;13689;48.590;7.752;2023-04-01T07:28:02;6.32;;;0.75;;
25870;SDS011;13689;48.590;7.752;2023-04-01T07:36:13;5.57;;;0.82;;
25870;SDS011;13689;48.590;7.752;2023-04-01T07:39:10;4.75;;;0.38;;
25870;SDS011;13689;48.590;7.752;2023-04-01T07:42:20;1.75;;;0.40;;
25870;SDS011;13689;48.590;7.752;2023-04-01T07:53:03;2.50;;;0.32;;
25870;SDS011;13689;48.590;7.752;2023-04-01T07:58:28;2.30;;;0.38;;
25870;SDS011;13689;48.590;7.752;2023-04-01T08:00:58;3.30;;;0.43;;
25870;SDS011;13689;48.590;7.752;2023-04-01T08:03:45;0.00;;;0.00;;
25870;SDS011;13689;48.590;7.752;2023-04-01T08:11:53;2.90;;;0.38;;
25870;SDS011;13689;48.590;7.752;2023-04-01T08:23:26;3.13;;;0.60;;
25870;SDS011;13689;48.590;7.752;2023-04-01T08:25:56;0.68;;;0.30;;
25870;SDS011;13689;48.590;7.752;2023-04-01T08:28:32;2.50;;;0.30;;
25870;SDS011;13689;48.590;7.752;2023-04-01T08:31:16;0.88;;;0.32;;
25870;SDS011;13689;48.590;7.752;2023-04-01T08:33:48;1.35;;;0.25;;
25870;SDS011;13689;48.590;7.752;2023-04-01T08:36:20;2.30;;;0.60;;
25870;SDS011;13689;48.590;7.752;2023-04-01T08:39:20;2.95;;;0.57;;
25870;SDS011;13689;48.590;7.752;2023-04-01T08:50:29;1.52;;;0.60;;
25870;SDS011;13689;48.590;7.752;2023-04-01T08:59:13;0.20;;;0.20;;
25870;SDS011;13689;48.590;7.752;2023-04-01T09:04:31;0.60;;;0.22;;
25870;SDS011;13689;48.590;7.752;2023-04-01T09:10:05;2.22;;;1.25;;
25870;SDS011;13689;48.590;7.752;2023-04-01T09:29:14;0.90;;;0.30;;
25870;SDS011;13689;48.590;7.752;2023-04-01T09:51:00;0.15;;;0.15;;
25870;SDS011;13689;48.590;7.752;2023-04-01T10:10:16;3.20;;;0.30;;
25870;SDS011;13689;48.590;7.752;2023-04-01T10:15:45;0.10;;;0.10;;
25870;SDS011;13689;48.590;7.752;2023-04-01T10:36:01;1.10;;;0.30;;
25870;SDS011;13689;48.590;7.752;2023-04-01T10:39:01;1.75;;;0.30;;
25870;SDS011;13689;48.590;7.752;2023-04-01T11:12:21;1.20;;;0.20;;
25870;SDS011;13689;48.590;7.752;2023-04-01T11:15:31;0.40;;;0.20;;
25870;SDS011;13689;48.590;7.752;2023-04-01T11:34:52;0.17;;;0.13;;
25870;SDS011;13689;48.590;7.752;2023-04-01T11:43:42;0.30;;;0.15;;
25870;SDS011;13689;48.590;7.752;2023-04-01T11:46:36;0.40;;;0.20;;
25870;SDS011;13689;48.590;7.752;2023-04-01T11:49:29;0.30;;;0.25;;
25870;SDS011;13689;48.590;7.752;2023-04-01T12:00:01;0.20;;;0.20;;
25870;SDS011;13689;48.590;7.752;2023-04-01T12:02:55;0.10;;;0.10;;
25870;SDS011;13689;48.590;7.752;2023-04-01T12:13:48;0.28;;;0.28;;
25870;SDS011;13689;48.590;7.752;2023-04-01T12:16:18;0.20;;;0.20;;
25870;SDS011;13689;48.590;7.752;2023-04-01T12:19:15;1.55;;;0.50;;
25870;SDS011;13689;48.590;7.752;2023-04-01T12:37:41;0.52;;;0.40;;
25870;SDS011;13689;48.590;7.752;2023-04-01T12:45:53;2.53;;;0.77;;
25870;SDS011;13689;48.590;7.752;2023-04-01T12:57:07;0.60;;;0.40;;
25870;SDS011;13689;48.590;7.752;2023-04-01T13:00:23;0.35;;;0.30;;
25870;SDS011;13689;48.590;7.752;2023-04-01T13:08:51;1.70;;;0.30;;
25870;SDS011;13689;48.590;7.752;2023-04-01T13:19:49;0.88;;;0.50;;
25870;SDS011;13689;48.590;7.752;2023-04-01T13:27:56;1.75;;;0.50;;
25870;SDS011;13689;48.590;7.752;2023-04-01T13:32:59;0.40;;;0.35;;
25870;SDS011;13689;48.590;7.752;2023-04-01T13:35:41;0.50;;;0.38;;
25870;SDS011;13689;48.590;7.752;2023-04-01T13:43:52;1.10;;;0.40;;
25870;SDS011;13689;48.590;7.752;2023-04-01T13:54:37;1.20;;;0.75;;
25870;SDS011;13689;48.590;7.752;2023-04-01T14:03:13;0.52;;;0.30;;
25870;SDS011;13689;48.590;7.752;2023-04-01T14:17:17;1.23;;;0.52;;
25870;SDS011;13689;48.590;7.752;2023-04-01T14:28:28;0.35;;;0.20;;
25870;SDS011;13689;48.590;7.752;2023-04-01T14:31:04;1.92;;;0.50;;
25870;SDS011;13689;48.590;7.752;2023-04-01T14:50:54;2.50;;;0.70;;
25870;SDS011;13689;48.590;7.752;2023-04-01T14:56:06;2.70;;;0.73;;
25870;SDS011;13689;48.590;7.752;2023-04-01T14:58:45;1.63;;;0.60;;
25870;SDS011;13689;48.590;7.752;2023-04-01T15:10:22;1.05;;;0.50;;
25870;SDS011;13689;48.590;7.752;2023-04-01T15:19:00;0.95;;;0.55;;
25870;SDS011;13689;48.590;7.752;2023-04-01T15:21:50;2.60;;;0.68;;
25870;SDS011;13689;48.590;7.752;2023-04-01T15:24:24;1.65;;;0.82;;
25870;SDS011;13689;48.590;7.752;2023-04-01T15:27:08;2.05;;;0.80;;
25870;SDS011;13689;48.590;7.752;2023-04-01T15:38:10;1.45;;;0.75;;
25870;SDS011;13689;48.590;7.752;2023-04-01T15:40:47;2.55;;;0.45;;
25870;SDS011;13689;48.590;7.752;2023-04-01T15:52:22;1.50;;;0.80;;
25870;SDS011;13689;48.590;7.752;2023-04-01T16:01:07;1.83;;;0.90;;
25870;SDS011;13689;48.590;7.752;2023-04-01T16:06:53;0.40;;;0.40;;
25870;SDS011;13689;48.590;7.752;2023-04-01T16:09:39;1.42;;;0.50;;
25870;SDS011;13689;48.590;7.752;2023-04-01T16:12:16;0.93;;;0.40;;
25870;SDS011;13689;48.590;7.752;2023-04-01T16:20:52;0.95;;;0.63;;
25870;SDS011;13689;48.590;7.752;2023-04-01T16:23:42;0.30;;;0.30;;
25870;SDS011;13689;48.590;7.752;2023-04-01T16:26:19;2.10;;;0.70;;
25870;SDS011;13689;48.590;7.752;2023-04-01T16:29:10;1.05;;;0.45;;
25870;SDS011;13689;48.590;7.752;2023-04-01T16:31:52;1.15;;;0.40;;
25870;SDS011;13689;48.590;7.752;2023-04-01T16:34:44;1.08;;;0.57;;
25870;SDS011;13689;48.590;7.752;2023-04-01T16:37:32;3.83;;;0.80;;
25870;SDS011;13689;48.590;7.752;2023-04-01T16:40:25;0.90;;;0.40;;
25870;SDS011;13689;48.590;7.752;2023-04-01T16:43:13;2.90;;;0.50;;
25870;SDS011;13689;48.590;7.752;2023-04-01T16:49:13;3.28;;;0.52;;
25870;SDS011;13689;48.590;7.752;2023-04-01T16:51:46;4.90;;;0.60;;
25870;SDS011;13689;48.590;7.752;2023-04-01T16:57:17;1.67;;;0.60;;
25870;SDS011;13689;48.590;7.752;2023-04-01T16:59:48;5.30;;;0.52;;
25870;SDS011;13689;48.590;7.752;2023-04-01T17:02:38;3.53;;;0.80;;
25870;SDS011;13689;48.590;7.752;2023-04-01T17:05:09;2.15;;;0.47;;
25870;SDS011;13689;48.590;7.752;2023-04-01T17:10:43;1.17;;;0.60;;
25870;SDS011;13689;48.590;7.752;2023-04-01T17:19:24;3.08;;;0.88;;
25870;SDS011;13689;48.590;7.752;2023-04-01T17:46:50;4.55;;;1.90;;
25870;SDS011;13689;48.590;7.752;2023-04-01T17:52:10;4.68;;;1.95;;
25870;SDS011;13689;48.590;7.752;2023-04-01T17:58:03;7.13;;;2.45;;
25870;SDS011;13689;48.590;7.752;2023-04-01T18:11:59;3.05;;;1.63;;
25870;SDS011;13689;48.590;7.752;2023-04-01T18:17:21;8.25;;;2.15;;
25870;SDS011;13689;48.590;7.752;2023-04-01T18:25:44;4.75;;;2.00;;
25870;SDS011;13689;48.590;7.752;2023-04-01T18:30:51;5.50;;;1.83;;
25870;SDS011;13689;48.590;7.752;2023-04-01T18:33:41;5.18;;;2.28;;
25870;SDS011;13689;48.590;7.752;2023-04-01T18:36:33;6.55;;;2.00;;
25870;SDS011;13689;48.590;7.752;2023-04-01T18:39:34;4.55;;;2.72;;
25870;SDS011;13689;48.590;7.752;2023-04-01T18:52:54;4.90;;;2.47;;
25870;SDS011;13689;48.590;7.752;2023-04-01T18:55:37;5.85;;;2.17;;
25870;SDS011;13689;48.590;7.752;2023-04-01T18:59:08;3.55;;;1.60;;
25870;SDS011;13689;48.590;7.752;2023-04-01T19:09:42;6.25;;;2.28;;
25870;SDS011;13689;48.590;7.752;2023-04-01T19:12:31;5.57;;;2.08;;
25870;SDS011;13689;48.590;7.752;2023-04-01T19:15:21;5.60;;;1.40;;
25870;SDS011;13689;48.590;7.752;2023-04-01T19:18:16;3.42;;;1.75;;
25870;SDS011;13689;48.590;7.752;2023-04-01T19:26:04;4.60;;;2.20;;
25870;SDS011;13689;48.590;7.752;2023-04-01T19:36:56;3.40;;;1.30;;
25870;SDS011;13689;48.590;7.752;2023-04-01T19:45:23;3.88;;;1.90;;
25870;SDS011;13689;48.590;7.752;2023-04-01T19:48:17;3.83;;;1.33;;
25870;SDS011;13689;48.590;7.752;2023-04-01T19:51:21;1.25;;;1.10;;
25870;SDS011;13689;48.590;7.752;2023-04-01T19:54:04;2.88;;;1.15;;
25870;SDS011;13689;48.590;7.752;2023-04-01T19:56:44;4.25;;;1.98;;
25870;SDS011;13689;48.590;7.752;2023-04-01T20:07:55;2.88;;;1.20;;
25870;SDS011;13689;48.590;7.752;2023-04-01T20:10:31;4.35;;;1.80;;
25870;SDS011;13689;48.590;7.752;2023-04-01T20:16:03;4.05;;;1.40;;
25870;SDS011;13689;48.590;7.752;2023-04-01T20:21:05;2.85;;;1.10;;
25870;SDS011;13689;48.590;7.752;2023-04-01T20:26:21;4.60;;;1.40;;
25870;SDS011;13689;48.590;7.752;2023-04-01T20:31:31;1.85;;;1.20;;
25870;SDS011;13689;48.590;7.752;2023-04-01T20:36:34;1.13;;;0.90;;
25870;SDS011;13689;48.590;7.752;2023-04-01T20:50:19;2.00;;;1.20;;
25870;SDS011;13689;48.590;7.752;2023-04-01T20:53:15;2.15;;;0.98;;
25870;SDS011;13689;48.590;7.752;2023-04-01T21:04:00;1.23;;;0.75;;
25870;SDS011;13689;48.590;7.752;2023-04-01T21:06:48;3.60;;;1.00;;
25870;SDS011;13689;48.590;7.752;2023-04-01T21:26:38;1.75;;;0.88;;
25870;SDS011;13689;48.590;7.752;2023-04-01T21:37:53;0.70;;;0.50;;
25870;SDS011;13689;48.590;7.752;2023-04-01T21:43:21;1.40;;;0.75;;
25870;SDS011;13689;48.590;7.752;2023-04-01T21:45:54;1.30;;;0.60;;
25870;SDS011;13689;48.590;7.752;2023-04-01T21:57:18;2.75;;;0.40;;
25870;SDS011;13689;48.590;7.752;2023-04-01T22:00:09;0.40;;;0.40;;
25870;SDS011;13689;48.590;7.752;2023-04-01T22:08:31;1.15;;;0.80;;
25870;SDS011;13689;48.590;7.752;2023-04-01T22:17:30;0.47;;;0.47;;
25870;SDS011;13689;48.590;7.752;2023-04-01T22:28:10;0.90;;;0.70;;
25870;SDS011;13689;48.590;7.752;2023-04-01T22:30:49;1.90;;;0.60;;
25870;SDS011;13689;48.590;7.752;2023-04-01T22:41:14;1.30;;;1.20;;
25870;SDS011;13689;48.590;7.752;2023-04-01T22:43:49;0.90;;;0.68;;
25870;SDS011;13689;48.590;7.752;2023-04-01T22:46:19;5.20;;;0.70;;
25870;SDS011;13689;48.590;7.752;2023-04-01T22:49:08;0.85;;;0.60;;
25870;SDS011;13689;48.590;7.752;2023-04-01T22:51:49;1.48;;;0.52;;
25870;SDS011;13689;48.590;7.752;2023-04-01T22:54:50;1.98;;;0.50;;
25870;SDS011;13689;48.590;7.752;2023-04-01T22:57:35;1.38;;;0.60;;
25870;SDS011;13689;48.590;7.752;2023-04-01T23:05:52;2.90;;;0.70;;
25870;SDS011;13689;48.590;7.752;2023-04-01T23:11:15;0.60;;;0.40;;
25870;SDS011;13689;48.590;7.752;2023-04-01T23:13:44;0.63;;;0.52;;
25870;SDS011;13689;48.590;7.752;2023-04-01T23:16:18;0.40;;;0.40;;
25870;SDS011;13689;48.590;7.752;2023-04-01T23:21:48;0.40;;;0.40;;
25870;SDS011;13689;48.590;7.752;2023-04-01T23:24:47;1.45;;;0.50;;
25870;SDS011;13689;48.590;7.752;2023-04-01T23:27:47;0.30;;;0.30;;
25870;SDS011;13689;48.590;7.752;2023-04-01T23:33:50;1.88;;;0.50;;
25870;SDS011;13689;48.590;7.752;2023-04-01T23:35:55;1.05;;;0.50;;
25870;SDS011;13689;48.590;7.752;2023-04-01T23:38:38;0.73;;;0.40;;
25870;SDS011;13689;48.590;7.752;2023-04-01T23:41:16;1.17;;;0.52;;
25870;SDS011;13689;48.590;7.752;2023-04-01T23:43:59;0.88;;;0.47;;
25870;SDS011;13689;48.590;7.752;2023-04-01T23:46:31;0.22;;;0.20;;
25870;SDS011;13689;48.590;7.752;2023-04-01T23:51:26;0.95;;;0.30;;
25870;SDS011;13689;48.590;7.752;2023-04-01T23:53:56;0.57;;;0.40;;
25870;SDS011;13689;48.590;7.752;2023-04-01T23:56:52;0.30;;;0.30;;
25870;SDS011;13689;48.590;7.752;2023-04-01T23:59:23;0.30;;;0.30;;
